createdAt,value
2022-11-20T00:00:15.851Z,1.00
2022-11-20T00:02:42.385Z,1.00
2022-11-20T00:05:09.151Z,1.00
2022-11-20T00:07:35.623Z,1.00
2022-11-20T00:10:02.855Z,1.00
2022-11-20T00:12:29.298Z,1.00
2022-11-20T00:14:55.723Z,1.00
2022-11-20T00:17:22.174Z,0.00
2022-11-20T00:19:48.626Z,1.00
2022-11-20T00:22:15.232Z,1.00
2022-11-20T00:24:43.130Z,0.40
2022-11-20T00:27:09.803Z,0.20
2022-11-20T00:29:36.272Z,1.00
2022-11-20T00:32:02.687Z,1.00
2022-11-20T00:34:29.101Z,0.00
2022-11-20T00:36:55.554Z,1.00
2022-11-20T00:39:22.286Z,0.00
2022-11-20T00:41:48.901Z,0.60
2022-11-20T00:44:15.313Z,1.00
2022-11-20T00:46:41.794Z,0.40
2022-11-20T00:49:08.251Z,1.00
2022-11-20T00:51:34.660Z,1.00
2022-11-20T00:54:03.052Z,1.00
2022-11-20T00:56:29.816Z,0.25
2022-11-20T00:58:56.355Z,1.00
2022-11-20T01:01:27.448Z,1.00
2022-11-20T01:03:55.142Z,0.80
2022-11-20T01:06:23.375Z,0.40
2022-11-20T01:08:50.609Z,1.00
2022-11-20T01:11:21.167Z,0.67
2022-11-20T01:13:48.645Z,0.25
2022-11-20T01:16:19.192Z,1.00
2022-11-20T01:18:47.558Z,1.00
2022-11-20T01:21:15.693Z,1.00
2022-11-20T01:23:43.175Z,1.00
2022-11-20T01:26:20.488Z,1.00
2022-11-20T01:28:47.321Z,1.00
2022-11-20T01:31:13.954Z,1.00
2022-11-20T01:33:40.798Z,1.00
2022-11-20T01:36:07.624Z,1.00
2022-11-20T01:38:34.110Z,1.00
2022-11-20T01:41:00.587Z,1.00
2022-11-20T01:43:27.456Z,1.00
2022-11-20T01:45:58.842Z,0.00
2022-11-20T01:48:26.676Z,0.00
2022-11-20T01:50:54.638Z,0.00
2022-11-20T01:53:24.949Z,1.00
2022-11-20T01:55:54.436Z,0.00
2022-11-20T01:58:23.419Z,1.00
2022-11-20T02:00:49.866Z,0.00
2022-11-20T02:03:20.635Z,1.00
2022-11-20T02:05:51.512Z,1.00
2022-11-20T02:08:18.657Z,1.00
2022-11-20T02:10:45.082Z,0.00
2022-11-20T02:13:30.507Z,0.40
2022-11-20T02:15:57.038Z,1.00
2022-11-20T02:18:24.226Z,0.80
2022-11-20T02:20:53.927Z,1.00
2022-11-20T02:23:32.381Z,1.00
2022-11-20T02:25:59.426Z,1.00
2022-11-20T02:28:26.455Z,0.00
2022-11-20T02:30:52.896Z,1.00
2022-11-20T02:33:19.305Z,1.00
2022-11-20T02:35:46.829Z,1.00
2022-11-20T02:38:14.091Z,0.00
2022-11-20T02:40:40.790Z,0.25
2022-11-20T02:43:07.426Z,1.00
2022-11-20T02:45:33.926Z,0.00
2022-11-20T02:48:00.363Z,0.00
2022-11-20T02:50:26.795Z,0.00
2022-11-20T02:52:53.224Z,1.00
2022-11-20T02:55:19.654Z,0.00
2022-11-20T02:57:46.192Z,1.00
2022-11-20T03:00:12.951Z,1.00
2022-11-20T03:02:39.366Z,1.00
2022-11-20T03:05:05.916Z,1.00
2022-11-20T03:07:32.416Z,1.40
2022-11-20T03:09:58.852Z,1.00
2022-11-20T03:12:25.273Z,0.00
2022-11-20T03:14:53.267Z,1.00
2022-11-20T03:17:20.150Z,1.00
2022-11-20T03:19:46.588Z,1.00
2022-11-20T03:22:13.082Z,1.00
2022-11-20T03:24:39.480Z,1.00
2022-11-20T03:27:05.903Z,1.00
2022-11-20T03:29:32.304Z,1.60
2022-11-20T03:31:58.889Z,1.00
2022-11-20T03:34:25.307Z,1.00
2022-11-20T03:36:51.735Z,1.00
2022-11-20T03:39:18.283Z,0.20
2022-11-20T03:41:44.887Z,1.00
2022-11-20T03:44:12.409Z,0.20
2022-11-20T03:46:39.192Z,1.00
2022-11-20T03:49:05.721Z,1.00
2022-11-20T03:51:33.488Z,1.00
2022-11-20T03:54:00.959Z,1.40
2022-11-20T03:56:28.680Z,1.00
2022-11-20T03:58:55.381Z,1.00
2022-11-20T04:01:28.985Z,1.00
2022-11-20T04:03:56.074Z,0.40
2022-11-20T04:06:23.935Z,1.00
2022-11-20T04:08:53.873Z,1.00
2022-11-20T04:11:21.616Z,0.00
2022-11-20T04:13:49.040Z,1.00
2022-11-20T04:16:15.726Z,1.33
2022-11-20T04:18:42.131Z,1.00
2022-11-20T04:21:08.646Z,1.00
2022-11-20T04:23:35.162Z,1.40
2022-11-20T04:26:05.880Z,1.00
2022-11-20T04:28:32.320Z,1.40
2022-11-20T04:31:07.788Z,1.00
2022-11-20T04:33:34.661Z,1.00
2022-11-20T04:36:08.650Z,1.40
2022-11-20T04:38:35.242Z,2.00
2022-11-20T04:41:02.572Z,1.00
2022-11-20T04:43:29.503Z,8.00
2022-11-20T04:45:56.748Z,3.80
2022-11-20T04:48:23.502Z,3.25
2022-11-20T04:50:50.230Z,2.00
2022-11-20T04:53:16.683Z,3.00
2022-11-20T04:55:43.174Z,2.00
2022-11-20T04:58:09.604Z,2.00
2022-11-20T05:00:36.047Z,2.00
2022-11-20T05:03:02.602Z,1.20
2022-11-20T05:05:29.055Z,1.00
2022-11-20T05:07:58.778Z,3.00
2022-11-20T05:10:25.967Z,2.00
2022-11-20T05:12:52.479Z,1.00
2022-11-20T05:15:19.104Z,1.00
2022-11-20T05:17:49.384Z,1.00
2022-11-20T05:20:15.870Z,1.00
2022-11-20T05:22:42.453Z,1.00
2022-11-20T05:25:10.247Z,2.00
2022-11-20T05:27:36.704Z,0.40
2022-11-20T05:30:03.763Z,2.00
2022-11-20T05:32:30.176Z,2.00
2022-11-20T05:34:56.624Z,1.00
2022-11-20T05:37:23.223Z,1.00
2022-11-20T05:39:49.631Z,1.00
2022-11-20T05:42:31.306Z,2.00
2022-11-20T05:44:58.331Z,2.00
2022-11-20T05:47:24.886Z,1.00
2022-11-20T05:49:51.291Z,1.00
2022-11-20T05:52:17.742Z,1.00
2022-11-20T05:54:44.174Z,2.00
2022-11-20T05:57:10.583Z,2.00
2022-11-20T05:59:36.962Z,2.00
2022-11-20T06:02:03.437Z,1.25
2022-11-20T06:04:29.925Z,1.00
2022-11-20T06:06:56.329Z,2.00
2022-11-20T06:09:23.007Z,2.00
2022-11-20T06:11:49.583Z,2.00
2022-11-20T06:14:16.020Z,2.00
2022-11-20T06:16:42.446Z,1.00
2022-11-20T06:19:08.857Z,2.50
2022-11-20T06:21:35.282Z,2.00
2022-11-20T06:24:01.825Z,2.00
2022-11-20T06:26:28.923Z,2.00
2022-11-20T06:28:57.080Z,2.80
2022-11-20T06:31:24.561Z,1.00
2022-11-20T06:33:51.541Z,2.00
2022-11-20T06:36:19.478Z,2.00
2022-11-20T06:38:45.922Z,2.20
2022-11-20T06:41:16.784Z,1.00
2022-11-20T06:43:43.528Z,3.00
2022-11-20T06:46:11.076Z,2.00
2022-11-20T06:48:37.611Z,1.40
2022-11-20T06:51:05.018Z,2.00
2022-11-20T06:53:31.463Z,2.00
2022-11-20T06:56:01.351Z,3.00
2022-11-20T06:58:28.984Z,2.40
2022-11-20T07:00:58.768Z,1.00
2022-11-20T07:03:25.185Z,2.75
2022-11-20T07:05:51.618Z,3.00
2022-11-20T07:08:18.161Z,1.00
2022-11-20T07:10:44.574Z,2.00
2022-11-20T07:13:10.993Z,1.60
2022-11-20T07:15:37.446Z,2.40
2022-11-20T07:18:03.928Z,3.00
2022-11-20T07:20:30.367Z,2.00
2022-11-20T07:22:57.465Z,5.00
2022-11-20T07:25:24.611Z,3.00
2022-11-20T07:27:51.045Z,2.00
2022-11-20T07:30:18.108Z,2.50
2022-11-20T07:32:47.685Z,2.00
2022-11-20T07:35:14.169Z,3.80
2022-11-20T07:37:40.584Z,2.00
2022-11-20T07:40:07.209Z,3.00
2022-11-20T07:42:33.662Z,2.00
2022-11-20T07:45:00.068Z,2.00
2022-11-20T07:47:26.518Z,2.40
2022-11-20T07:49:52.949Z,4.00
2022-11-20T07:52:19.373Z,5.40
2022-11-20T07:54:45.796Z,8.40
2022-11-20T07:57:12.203Z,4.00
2022-11-20T07:59:39.875Z,7.00
2022-11-20T08:02:06.429Z,5.25
2022-11-20T08:04:33.262Z,7.00
2022-11-20T08:06:59.700Z,7.00
2022-11-20T08:09:26.143Z,5.00
2022-11-20T08:12:11.146Z,6.50
2022-11-20T08:14:37.548Z,7.60
2022-11-20T08:17:03.973Z,5.00
2022-11-20T08:19:30.570Z,7.67
2022-11-20T08:21:57.075Z,9.00
2022-11-20T08:24:23.470Z,6.00
2022-11-20T08:26:49.990Z,8.00
2022-11-20T08:29:16.453Z,5.50
2022-11-20T08:31:42.902Z,9.00
2022-11-20T08:34:10.258Z,7.00
2022-11-20T08:36:37.843Z,4.00
2022-11-20T08:39:04.337Z,5.00
2022-11-20T08:41:34.116Z,5.50
2022-11-20T08:44:02.794Z,7.60
2022-11-20T08:46:40.345Z,7.20
2022-11-20T08:49:07.466Z,10.00
2022-11-20T08:51:34.120Z,11.50
2022-11-20T08:54:00.683Z,16.50
2022-11-20T08:56:27.146Z,16.00
2022-11-20T09:01:40.468Z,42.60
2022-11-20T09:04:06.970Z,10.50
2022-11-20T09:06:33.394Z,19.25
2022-11-20T09:09:06.092Z,17.60
2022-11-20T09:11:33.306Z,12.00
2022-11-20T09:13:59.772Z,18.25
2022-11-20T09:16:26.171Z,8.00
2022-11-20T09:19:07.315Z,3.50
2022-11-20T09:21:39.136Z,12.00
2022-11-20T09:24:05.980Z,16.00
2022-11-20T09:26:32.374Z,19.33
2022-11-20T09:28:58.779Z,14.50
2022-11-20T09:31:26.881Z,10.75
2022-11-20T09:33:53.424Z,10.60
2022-11-20T09:36:19.903Z,6.00
2022-11-20T09:38:46.887Z,8.00
2022-11-20T09:41:31.983Z,5.50
2022-11-20T09:44:04.951Z,13.75
2022-11-20T09:46:37.267Z,8.50
2022-11-20T09:49:04.020Z,10.75
2022-11-20T09:51:36.685Z,17.00
2022-11-20T09:54:15.403Z,14.00
2022-11-20T09:56:43.836Z,4.20
2022-11-20T09:59:17.021Z,8.00
2022-11-20T10:01:44.262Z,17.00
2022-11-20T10:04:21.659Z,9.75
2022-11-20T10:07:31.931Z,12.20
2022-11-20T10:09:59.539Z,7.00
2022-11-20T10:12:25.974Z,5.00
2022-11-20T10:15:15.693Z,5.00
2022-11-20T10:18:01.093Z,6.00
2022-11-20T10:20:47.261Z,4.40
2022-11-20T10:23:32.651Z,4.60
2022-11-20T10:26:08.097Z,3.00
2022-11-20T10:28:55.400Z,2.20
2022-11-20T10:31:26.573Z,3.00
2022-11-20T10:34:11.766Z,3.25
2022-11-20T10:36:47.432Z,4.00
2022-11-20T10:39:25.072Z,4.40
2022-11-20T10:41:52.937Z,2.00
2022-11-20T10:44:42.239Z,5.40
2022-11-20T10:47:13.636Z,4.40
2022-11-20T10:49:41.433Z,6.00
2022-11-20T10:52:13.786Z,2.60
2022-11-20T10:54:44.585Z,2.00
2022-11-20T10:57:31.245Z,2.00
2022-11-20T10:59:57.676Z,1.00
2022-11-20T11:02:25.185Z,9.00
2022-11-20T11:04:53.185Z,5.00
2022-11-20T11:07:28.935Z,10.00
2022-11-20T11:09:56.287Z,13.25
2022-11-20T11:12:24.543Z,9.00
2022-11-20T11:14:51.957Z,17.50
2022-11-20T11:17:38.635Z,4.00
2022-11-20T11:20:17.436Z,2.00
2022-11-20T11:22:46.277Z,3.00
2022-11-20T11:25:20.398Z,8.00
2022-11-20T11:27:48.786Z,2.00
2022-11-20T11:30:17.423Z,2.00
2022-11-20T11:32:44.207Z,5.40
2022-11-20T11:35:27.952Z,4.00
2022-11-20T11:38:14.607Z,3.00
2022-11-20T11:40:41.771Z,3.00
2022-11-20T11:43:38.112Z,3.75
2022-11-20T11:46:08.994Z,15.60
2022-11-20T11:48:35.455Z,5.20
2022-11-20T11:51:01.925Z,13.50
2022-11-20T11:53:28.869Z,18.60
2022-11-20T11:56:01.375Z,24.00
2022-11-20T11:58:48.259Z,1.60
2022-11-20T12:01:34.255Z,20.75
2022-11-20T12:04:04.959Z,7.00
2022-11-20T12:06:32.542Z,9.75
2022-11-20T12:09:02.250Z,9.75
2022-11-20T12:11:47.566Z,10.00
2022-11-20T12:14:25.138Z,3.40
2022-11-20T12:16:53.804Z,8.75
2022-11-20T12:19:20.754Z,13.75
2022-11-20T12:22:07.736Z,11.80
2022-11-20T12:24:55.574Z,5.20
2022-11-20T12:27:22.009Z,4.00
2022-11-20T12:30:06.824Z,9.00
2022-11-20T12:32:39.167Z,6.00
2022-11-20T12:35:24.373Z,4.00
2022-11-20T12:37:50.813Z,4.00
2022-11-20T12:40:39.705Z,3.00
2022-11-20T12:43:45.203Z,10.20
2022-11-20T12:46:34.405Z,12.20
2022-11-20T12:49:08.512Z,2.60
2022-11-20T12:51:34.900Z,1.00
2022-11-20T12:54:04.311Z,1.50
2022-11-20T12:56:44.021Z,3.00
2022-11-20T12:59:28.961Z,5.00
2022-11-20T13:01:59.562Z,3.00
2022-11-20T13:04:32.155Z,3.20
2022-11-20T13:06:59.286Z,4.50
2022-11-20T13:09:26.964Z,1.00
2022-11-20T13:12:11.926Z,0.60
2022-11-20T13:14:44.434Z,2.20
2022-11-20T13:17:13.904Z,4.00
2022-11-20T13:19:40.588Z,3.00
2022-11-20T13:22:09.140Z,3.00
2022-11-20T13:24:35.601Z,5.00
2022-11-20T13:27:06.704Z,2.00
2022-11-20T13:29:33.703Z,1.40
2022-11-20T13:32:08.390Z,3.75
2022-11-20T13:34:37.122Z,2.00
2022-11-20T13:37:04.887Z,5.80
2022-11-20T13:39:32.945Z,5.00
2022-11-20T13:42:19.621Z,5.40
2022-11-20T13:44:48.340Z,2.75
2022-11-20T13:47:25.328Z,5.25
2022-11-20T13:49:53.004Z,6.00
2022-11-20T13:52:38.131Z,3.00
2022-11-20T13:55:20.490Z,4.00
2022-11-20T13:57:55.888Z,10.00
2022-11-20T14:00:23.820Z,5.60
2022-11-20T14:03:00.447Z,11.00
2022-11-20T14:05:27.029Z,4.40
2022-11-20T14:07:54.314Z,4.00
2022-11-20T14:10:23.287Z,25.40
2022-11-20T14:12:52.425Z,21.60
2022-11-20T14:15:28.118Z,2.60
2022-11-20T14:17:54.806Z,1.00
2022-11-20T14:20:26.346Z,7.50
2022-11-20T14:22:53.727Z,1.00
2022-11-20T14:25:24.445Z,3.20
2022-11-20T14:27:55.513Z,2.00
2022-11-20T14:30:23.601Z,6.00
2022-11-20T14:32:50.839Z,2.80
2022-11-20T14:35:32.485Z,9.00
2022-11-20T14:37:59.151Z,13.00
2022-11-20T14:40:27.409Z,10.00
2022-11-20T14:42:54.069Z,9.20
2022-11-20T14:45:21.250Z,3.80
2022-11-20T14:47:47.889Z,4.00
2022-11-20T14:50:20.219Z,11.40
2022-11-20T14:52:57.183Z,8.00
2022-11-20T14:55:29.521Z,9.00
2022-11-20T14:57:57.227Z,15.00
2022-11-20T15:00:24.293Z,5.20
2022-11-20T15:02:51.817Z,14.40
2022-11-20T15:05:19.650Z,32.50
2022-11-20T15:07:47.520Z,26.00
2022-11-20T15:10:20.005Z,18.00
2022-11-20T15:12:51.389Z,30.25
2022-11-20T15:15:22.071Z,22.80
2022-11-20T15:17:48.537Z,16.40
2022-11-20T15:20:16.047Z,1.00
2022-11-20T15:22:42.540Z,12.50
2022-11-20T15:25:16.024Z,4.00
2022-11-20T15:27:42.915Z,10.33
2022-11-20T15:30:17.750Z,4.00
2022-11-20T15:32:45.111Z,5.00
2022-11-20T15:35:12.031Z,2.00
2022-11-20T15:37:38.853Z,9.00
2022-11-20T15:40:05.661Z,13.40
2022-11-20T15:42:32.098Z,15.00
2022-11-20T15:44:58.598Z,6.40
2022-11-20T15:47:32.438Z,2.00
2022-11-20T15:49:58.975Z,7.00
2022-11-20T15:52:25.410Z,13.00
2022-11-20T15:54:51.828Z,4.40
2022-11-20T15:57:18.253Z,10.00
2022-11-20T15:59:44.824Z,7.20
2022-11-20T16:02:19.172Z,4.00
2022-11-20T16:04:46.001Z,2.75
2022-11-20T16:07:12.468Z,5.80
2022-11-20T16:09:38.930Z,4.00
2022-11-20T16:12:05.536Z,6.00
2022-11-20T16:14:50.601Z,11.00
2022-11-20T16:17:36.954Z,3.00
2022-11-20T16:20:03.461Z,5.00
2022-11-20T16:22:29.869Z,9.00
2022-11-20T16:24:56.322Z,9.20
2022-11-20T16:27:22.748Z,3.80
2022-11-20T16:29:49.151Z,1.00
2022-11-20T16:32:15.629Z,0.50
2022-11-20T16:34:42.038Z,2.80
2022-11-20T16:37:08.464Z,0.20
2022-11-20T16:39:34.904Z,5.00
2022-11-20T16:42:04.389Z,2.00
2022-11-20T16:44:30.834Z,12.60
2022-11-20T16:46:57.250Z,23.50
2022-11-20T16:49:24.918Z,33.50
2022-11-20T16:51:51.852Z,21.25
2022-11-20T16:54:21.128Z,17.00
2022-11-20T16:56:48.375Z,24.00
2022-11-20T16:59:14.834Z,22.60
2022-11-20T17:01:43.116Z,25.75
2022-11-20T17:04:09.972Z,21.20
2022-11-20T17:06:37.546Z,23.00
2022-11-20T17:09:04.116Z,31.75
2022-11-20T17:11:30.572Z,11.20
2022-11-20T17:13:58.020Z,8.00
2022-11-20T17:16:24.762Z,13.00
2022-11-20T17:18:51.450Z,12.60
2022-11-20T17:21:18.582Z,13.00
2022-11-20T17:23:45.519Z,11.00
2022-11-20T17:26:16.485Z,10.00
2022-11-20T17:28:44.748Z,10.20
2022-11-20T17:31:12.992Z,7.50
2022-11-20T17:33:40.131Z,7.00
2022-11-20T17:36:07.385Z,15.20
2022-11-20T17:38:34.281Z,10.00
2022-11-20T17:41:05.309Z,9.75
2022-11-20T17:43:35.690Z,13.00
2022-11-20T17:46:05.228Z,25.00
2022-11-20T17:48:31.646Z,26.00
2022-11-20T17:51:06.264Z,14.80
2022-11-20T17:53:33.385Z,22.00
2022-11-20T17:56:18.587Z,18.20
2022-11-20T17:58:45.010Z,16.00
2022-11-20T18:01:11.523Z,19.00
2022-11-20T18:03:38.158Z,32.60
2022-11-20T18:06:11.768Z,86.00
2022-11-20T18:08:38.708Z,69.20
2022-11-20T18:11:14.093Z,52.00
2022-11-20T18:13:59.791Z,29.40
2022-11-20T18:16:26.798Z,44.25
2022-11-20T18:18:56.617Z,41.00
2022-11-20T18:21:23.802Z,38.75
2022-11-20T18:23:50.593Z,60.67
2022-11-20T18:26:17.609Z,64.75
2022-11-20T18:28:44.304Z,31.75
2022-11-20T18:31:11.081Z,27.00
2022-11-20T18:33:37.909Z,33.00
2022-11-20T18:36:11.580Z,28.40
2022-11-20T18:38:40.740Z,26.25
2022-11-20T18:41:08.343Z,26.50
2022-11-20T18:43:53.365Z,26.25
2022-11-20T18:46:22.001Z,21.80
2022-11-20T18:48:48.431Z,37.80
2022-11-20T18:51:16.300Z,26.00
2022-11-20T18:53:47.115Z,28.75
2022-11-20T18:56:14.173Z,28.00
2022-11-20T18:58:41.387Z,33.50
2022-11-20T19:01:08.379Z,31.75
2022-11-20T19:03:34.863Z,32.75
2022-11-20T19:06:01.327Z,19.50
2022-11-20T19:08:28.155Z,19.80
2022-11-20T19:10:54.607Z,19.00
2022-11-20T19:13:21.069Z,23.00
2022-11-20T19:15:47.593Z,30.75
2022-11-20T19:18:14.045Z,30.00
2022-11-20T19:20:40.469Z,27.80
2022-11-20T19:23:06.883Z,19.75
2022-11-20T19:25:37.910Z,13.00
2022-11-20T19:28:04.995Z,20.00
2022-11-20T19:30:31.401Z,16.00
2022-11-20T19:32:58.137Z,13.00
2022-11-20T19:35:24.784Z,22.00
2022-11-20T19:37:51.600Z,12.20
2022-11-20T19:40:18.017Z,12.00
2022-11-20T19:42:44.449Z,22.00
2022-11-20T19:45:10.926Z,24.00
2022-11-20T19:48:07.253Z,27.00
2022-11-20T19:50:23.952Z,19.25
2022-11-20T19:52:53.240Z,21.80
2022-11-20T19:55:23.942Z,20.40
2022-11-20T19:57:50.517Z,17.00
2022-11-20T20:00:24.467Z,20.25
2022-11-20T20:02:54.739Z,29.75
2022-11-20T20:05:21.145Z,27.00
2022-11-20T20:07:47.604Z,20.00
2022-11-20T20:10:14.786Z,19.00
2022-11-20T20:12:41.217Z,27.60
2022-11-20T20:15:07.813Z,20.00
2022-11-20T20:17:34.274Z,22.00
2022-11-20T20:20:02.262Z,20.00
2022-11-20T20:22:28.691Z,23.00
2022-11-20T20:24:55.405Z,20.00
2022-11-20T20:27:21.846Z,23.00
2022-11-20T20:29:48.280Z,21.40
2022-11-20T20:32:14.979Z,19.00
2022-11-20T20:34:41.410Z,23.00
2022-11-20T20:37:07.810Z,23.00
2022-11-20T20:39:34.273Z,26.00
2022-11-20T20:42:00.754Z,15.00
2022-11-20T20:44:45.804Z,14.00
2022-11-20T20:47:12.294Z,20.00
2022-11-20T20:49:38.704Z,21.75
2022-11-20T20:52:08.319Z,32.75
2022-11-20T20:54:34.774Z,13.20
2022-11-20T20:57:01.189Z,14.50
2022-11-20T20:59:27.673Z,19.00
2022-11-20T21:01:54.114Z,18.80
2022-11-20T21:04:20.556Z,16.00
2022-11-20T21:06:46.996Z,17.00
2022-11-20T21:09:13.448Z,20.40
2022-11-20T21:11:40.901Z,15.25
2022-11-20T21:14:07.327Z,14.80
2022-11-20T21:16:41.139Z,15.00
2022-11-20T21:19:08.318Z,19.00
2022-11-20T21:21:53.367Z,19.00
2022-11-20T21:24:20.017Z,16.50
2022-11-20T21:26:46.556Z,16.20
2022-11-20T21:29:13.039Z,15.00
2022-11-20T21:31:39.472Z,14.60
2022-11-20T21:34:07.217Z,18.00
2022-11-20T21:36:33.744Z,15.50
2022-11-20T21:39:00.151Z,14.00
2022-11-20T21:41:27.643Z,15.00
2022-11-20T21:44:24.064Z,14.00
2022-11-20T21:46:42.460Z,14.00
2022-11-20T21:49:09.443Z,14.00
2022-11-20T21:51:35.902Z,15.00
2022-11-20T21:54:02.318Z,17.00
2022-11-20T21:56:28.745Z,17.00
2022-11-20T21:58:55.428Z,16.25
2022-11-20T22:01:29.113Z,13.00
2022-11-20T22:03:57.292Z,10.00
2022-11-20T22:06:29.469Z,12.00
2022-11-20T22:08:55.895Z,11.00
2022-11-20T22:11:22.427Z,11.00
2022-11-20T22:14:07.388Z,7.00
2022-11-20T22:16:34.823Z,7.00
2022-11-20T22:19:01.353Z,7.80
2022-11-20T22:21:28.730Z,8.00
2022-11-20T22:23:55.654Z,7.00
2022-11-20T22:26:23.314Z,7.00
2022-11-20T22:28:50.600Z,7.00
2022-11-20T22:31:18.130Z,8.60
2022-11-20T22:33:44.927Z,10.00
2022-11-20T22:36:12.714Z,7.60
2022-11-20T22:38:39.766Z,6.50
2022-11-20T22:41:08.024Z,6.00
2022-11-20T22:43:34.489Z,5.40
2022-11-20T22:46:08.655Z,6.00
2022-11-20T22:48:36.091Z,7.00
2022-11-20T22:51:10.016Z,8.00
2022-11-20T22:53:36.822Z,6.33
2022-11-20T22:56:03.772Z,5.50
2022-11-20T22:58:30.802Z,8.00
2022-11-20T23:01:15.967Z,7.00
2022-11-20T23:03:43.587Z,7.00
2022-11-20T23:06:10.763Z,6.25
2022-11-20T23:08:38.027Z,6.50
2022-11-20T23:11:06.492Z,5.50
2022-11-20T23:13:32.941Z,7.00
2022-11-20T23:16:08.275Z,6.00
2022-11-20T23:18:35.467Z,8.00
2022-11-20T23:21:12.108Z,7.00
2022-11-20T23:23:38.767Z,9.00
2022-11-20T23:26:06.405Z,8.60
2022-11-20T23:28:33.154Z,10.20
2022-11-20T23:30:59.780Z,10.00
2022-11-20T23:33:26.257Z,6.00
2022-11-20T23:35:52.758Z,8.00
2022-11-20T23:38:19.239Z,9.00
2022-11-20T23:40:49.522Z,5.00
2022-11-20T23:43:16.330Z,4.00
2022-11-20T23:45:46.720Z,3.00
2022-11-20T23:48:13.498Z,4.00
2022-11-20T23:50:40.099Z,3.50
2022-11-20T23:53:06.756Z,4.40
2022-11-20T23:55:33.257Z,4.25
2022-11-20T23:57:59.776Z,5.00
